sensor_id;sensor_type;location;lat;lon;timestamp;P1;durP1;ratioP1;P2;durP2;ratioP2
85001;SDS011;75323;31.624;-8.002;2024-03-07T00:02:08;10.27;;;2.63;;
85001;SDS011;75323;31.624;-8.002;2024-03-07T00:04:33;7.93;;;2.80;;
85001;SDS011;75323;31.624;-8.002;2024-03-07T00:07:01;8.20;;;2.60;;
85001;SDS011;75323;31.624;-8.002;2024-03-07T00:09:33;11.68;;;2.63;;
85001;SDS011;75323;31.624;-8.002;2024-03-07T00:12:00;8.32;;;2.15;;
85001;SDS011;75323;31.624;-8.002;2024-03-07T00:14:26;8.18;;;2.47;;
85001;SDS011;75323;31.624;-8.002;2024-03-07T00:16:55;13.63;;;2.53;;
85001;SDS011;75323;31.624;-8.002;2024-03-07T00:19:21;9.85;;;3.60;;
85001;SDS011;75323;31.624;-8.002;2024-03-07T00:21:52;10.48;;;2.30;;
85001;SDS011;75323;31.624;-8.002;2024-03-07T00:24:19;8.52;;;3.05;;
85001;SDS011;75323;31.624;-8.002;2024-03-07T00:26:46;10.25;;;3.05;;
85001;SDS011;75323;31.624;-8.002;2024-03-07T00:29:11;8.02;;;3.45;;
85001;SDS011;75323;31.624;-8.002;2024-03-07T00:31:37;8.60;;;2.85;;
85001;SDS011;75323;31.624;-8.002;2024-03-07T00:34:03;8.25;;;1.98;;
85001;SDS011;75323;31.624;-8.002;2024-03-07T00:36:29;11.00;;;3.00;;
85001;SDS011;75323;31.624;-8.002;2024-03-07T00:38:54;9.15;;;2.60;;
85001;SDS011;75323;31.624;-8.002;2024-03-07T00:41:20;10.57;;;2.47;;
85001;SDS011;75323;31.624;-8.002;2024-03-07T00:43:46;13.68;;;3.70;;
85001;SDS011;75323;31.624;-8.002;2024-03-07T00:46:12;8.73;;;3.00;;
85001;SDS011;75323;31.624;-8.002;2024-03-07T00:48:38;13.25;;;2.67;;
85001;SDS011;75323;31.624;-8.002;2024-03-07T00:51:04;10.75;;;3.03;;
85001;SDS011;75323;31.624;-8.002;2024-03-07T00:53:30;8.05;;;2.63;;
85001;SDS011;75323;31.624;-8.002;2024-03-07T00:55:56;8.98;;;2.25;;
85001;SDS011;75323;31.624;-8.002;2024-03-07T00:58:22;13.80;;;2.45;;
85001;SDS011;75323;31.624;-8.002;2024-03-07T01:00:48;11.65;;;2.70;;
85001;SDS011;75323;31.624;-8.002;2024-03-07T01:03:14;10.07;;;3.25;;
85001;SDS011;75323;31.624;-8.002;2024-03-07T01:05:43;16.27;;;5.75;;
85001;SDS011;75323;31.624;-8.002;2024-03-07T01:08:09;18.63;;;5.28;;
85001;SDS011;75323;31.624;-8.002;2024-03-07T01:10:34;15.32;;;4.22;;
85001;SDS011;75323;31.624;-8.002;2024-03-07T01:13:00;14.27;;;4.20;;
85001;SDS011;75323;31.624;-8.002;2024-03-07T01:15:27;13.75;;;3.35;;
85001;SDS011;75323;31.624;-8.002;2024-03-07T01:17:54;15.32;;;3.75;;
85001;SDS011;75323;31.624;-8.002;2024-03-07T01:20:19;9.98;;;4.63;;
85001;SDS011;75323;31.624;-8.002;2024-03-07T01:22:46;11.85;;;4.03;;
85001;SDS011;75323;31.624;-8.002;2024-03-07T01:25:12;10.40;;;2.95;;
85001;SDS011;75323;31.624;-8.002;2024-03-07T01:27:38;9.07;;;2.67;;
85001;SDS011;75323;31.624;-8.002;2024-03-07T01:30:04;11.20;;;3.20;;
85001;SDS011;75323;31.624;-8.002;2024-03-07T01:32:33;10.15;;;2.63;;
85001;SDS011;75323;31.624;-8.002;2024-03-07T01:34:59;12.77;;;3.83;;
85001;SDS011;75323;31.624;-8.002;2024-03-07T01:37:25;10.65;;;3.30;;
85001;SDS011;75323;31.624;-8.002;2024-03-07T01:39:51;11.75;;;4.18;;
85001;SDS011;75323;31.624;-8.002;2024-03-07T01:42:18;11.38;;;5.05;;
85001;SDS011;75323;31.624;-8.002;2024-03-07T01:44:43;10.18;;;3.63;;
85001;SDS011;75323;31.624;-8.002;2024-03-07T01:47:10;20.40;;;4.22;;
85001;SDS011;75323;31.624;-8.002;2024-03-07T01:49:36;12.02;;;4.32;;
85001;SDS011;75323;31.624;-8.002;2024-03-07T01:52:04;10.50;;;3.80;;
85001;SDS011;75323;31.624;-8.002;2024-03-07T01:54:30;10.90;;;3.13;;
85001;SDS011;75323;31.624;-8.002;2024-03-07T01:56:57;9.63;;;3.25;;
85001;SDS011;75323;31.624;-8.002;2024-03-07T01:59:23;10.73;;;3.38;;
85001;SDS011;75323;31.624;-8.002;2024-03-07T02:01:50;16.58;;;4.53;;
85001;SDS011;75323;31.624;-8.002;2024-03-07T02:04:16;10.13;;;3.78;;
85001;SDS011;75323;31.624;-8.002;2024-03-07T02:06:42;14.45;;;4.95;;
85001;SDS011;75323;31.624;-8.002;2024-03-07T02:09:08;14.02;;;4.03;;
85001;SDS011;75323;31.624;-8.002;2024-03-07T02:11:34;12.60;;;4.07;;
85001;SDS011;75323;31.624;-8.002;2024-03-07T02:14:00;20.75;;;5.07;;
85001;SDS011;75323;31.624;-8.002;2024-03-07T02:16:26;15.10;;;3.78;;
85001;SDS011;75323;31.624;-8.002;2024-03-07T02:18:52;9.00;;;3.47;;
85001;SDS011;75323;31.624;-8.002;2024-03-07T02:21:18;12.90;;;6.57;;
85001;SDS011;75323;31.624;-8.002;2024-03-07T02:23:43;14.38;;;7.00;;
85001;SDS011;75323;31.624;-8.002;2024-03-07T02:26:09;15.32;;;5.28;;
85001;SDS011;75323;31.624;-8.002;2024-03-07T02:28:35;17.73;;;6.38;;
85001;SDS011;75323;31.624;-8.002;2024-03-07T02:31:01;15.98;;;5.63;;
85001;SDS011;75323;31.624;-8.002;2024-03-07T02:33:27;13.52;;;6.15;;
85001;SDS011;75323;31.624;-8.002;2024-03-07T02:35:53;17.30;;;5.68;;
85001;SDS011;75323;31.624;-8.002;2024-03-07T02:38:19;14.52;;;4.88;;
85001;SDS011;75323;31.624;-8.002;2024-03-07T02:40:45;12.73;;;5.05;;
85001;SDS011;75323;31.624;-8.002;2024-03-07T02:43:13;14.35;;;6.00;;
85001;SDS011;75323;31.624;-8.002;2024-03-07T02:45:39;10.50;;;4.40;;
85001;SDS011;75323;31.624;-8.002;2024-03-07T02:48:05;8.77;;;4.90;;
85001;SDS011;75323;31.624;-8.002;2024-03-07T02:50:35;11.82;;;4.38;;
85001;SDS011;75323;31.624;-8.002;2024-03-07T02:53:04;20.08;;;7.10;;
85001;SDS011;75323;31.624;-8.002;2024-03-07T02:55:31;13.43;;;5.18;;
85001;SDS011;75323;31.624;-8.002;2024-03-07T02:57:57;11.68;;;5.30;;
85001;SDS011;75323;31.624;-8.002;2024-03-07T03:00:24;14.77;;;6.25;;
85001;SDS011;75323;31.624;-8.002;2024-03-07T03:02:55;11.88;;;4.65;;
85001;SDS011;75323;31.624;-8.002;2024-03-07T03:05:22;9.15;;;3.58;;
85001;SDS011;75323;31.624;-8.002;2024-03-07T03:07:49;11.60;;;4.50;;
85001;SDS011;75323;31.624;-8.002;2024-03-07T03:10:26;15.40;;;4.05;;
85001;SDS011;75323;31.624;-8.002;2024-03-07T03:12:57;13.30;;;6.35;;
85001;SDS011;75323;31.624;-8.002;2024-03-07T03:15:24;10.10;;;3.80;;
85001;SDS011;75323;31.624;-8.002;2024-03-07T03:17:50;13.10;;;3.90;;
85001;SDS011;75323;31.624;-8.002;2024-03-07T03:20:17;15.05;;;3.88;;
85001;SDS011;75323;31.624;-8.002;2024-03-07T03:22:59;11.05;;;5.22;;
85001;SDS011;75323;31.624;-8.002;2024-03-07T03:25:25;9.63;;;4.55;;
85001;SDS011;75323;31.624;-8.002;2024-03-07T03:27:51;13.13;;;4.97;;
85001;SDS011;75323;31.624;-8.002;2024-03-07T03:30:18;12.52;;;3.72;;
85001;SDS011;75323;31.624;-8.002;2024-03-07T03:32:47;13.60;;;4.22;;
85001;SDS011;75323;31.624;-8.002;2024-03-07T03:35:14;14.30;;;3.88;;
85001;SDS011;75323;31.624;-8.002;2024-03-07T03:37:44;11.52;;;4.18;;
85001;SDS011;75323;31.624;-8.002;2024-03-07T03:40:10;10.90;;;3.95;;
85001;SDS011;75323;31.624;-8.002;2024-03-07T03:42:38;10.93;;;3.58;;
85001;SDS011;75323;31.624;-8.002;2024-03-07T03:45:05;8.23;;;3.45;;
85001;SDS011;75323;31.624;-8.002;2024-03-07T03:47:33;9.00;;;4.22;;
85001;SDS011;75323;31.624;-8.002;2024-03-07T03:50:04;13.55;;;5.43;;
85001;SDS011;75323;31.624;-8.002;2024-03-07T03:52:31;10.05;;;4.30;;
85001;SDS011;75323;31.624;-8.002;2024-03-07T03:54:58;11.18;;;4.53;;
85001;SDS011;75323;31.624;-8.002;2024-03-07T03:57:27;15.85;;;5.53;;
85001;SDS011;75323;31.624;-8.002;2024-03-07T03:59:54;14.15;;;4.50;;
85001;SDS011;75323;31.624;-8.002;2024-03-07T04:02:21;10.30;;;3.88;;
85001;SDS011;75323;31.624;-8.002;2024-03-07T04:04:53;11.48;;;4.82;;
85001;SDS011;75323;31.624;-8.002;2024-03-07T04:07:19;16.83;;;6.47;;
85001;SDS011;75323;31.624;-8.002;2024-03-07T04:09:46;16.73;;;6.43;;
85001;SDS011;75323;31.624;-8.002;2024-03-07T04:12:12;14.43;;;5.40;;
85001;SDS011;75323;31.624;-8.002;2024-03-07T04:14:41;11.65;;;5.43;;
85001;SDS011;75323;31.624;-8.002;2024-03-07T04:17:08;12.18;;;5.28;;
85001;SDS011;75323;31.624;-8.002;2024-03-07T04:19:38;13.27;;;4.88;;
85001;SDS011;75323;31.624;-8.002;2024-03-07T04:22:07;13.40;;;5.10;;
85001;SDS011;75323;31.624;-8.002;2024-03-07T04:24:34;11.13;;;3.40;;
85001;SDS011;75323;31.624;-8.002;2024-03-07T04:27:03;13.70;;;4.55;;
85001;SDS011;75323;31.624;-8.002;2024-03-07T04:29:31;13.55;;;5.43;;
85001;SDS011;75323;31.624;-8.002;2024-03-07T04:31:57;15.70;;;5.80;;
85001;SDS011;75323;31.624;-8.002;2024-03-07T04:34:24;9.93;;;4.72;;
85001;SDS011;75323;31.624;-8.002;2024-03-07T04:36:50;11.32;;;4.90;;
85001;SDS011;75323;31.624;-8.002;2024-03-07T04:39:16;15.23;;;5.32;;
85001;SDS011;75323;31.624;-8.002;2024-03-07T04:42:08;14.35;;;4.00;;
85001;SDS011;75323;31.624;-8.002;2024-03-07T04:44:35;12.20;;;3.38;;
85001;SDS011;75323;31.624;-8.002;2024-03-07T04:47:02;10.88;;;3.38;;
85001;SDS011;75323;31.624;-8.002;2024-03-07T04:49:29;15.82;;;5.22;;
85001;SDS011;75323;31.624;-8.002;2024-03-07T04:51:56;10.65;;;3.88;;
85001;SDS011;75323;31.624;-8.002;2024-03-07T04:54:23;9.13;;;2.47;;
85001;SDS011;75323;31.624;-8.002;2024-03-07T04:56:50;8.10;;;2.58;;
85001;SDS011;75323;31.624;-8.002;2024-03-07T04:59:17;8.48;;;2.90;;
85001;SDS011;75323;31.624;-8.002;2024-03-07T05:01:44;11.05;;;4.18;;
85001;SDS011;75323;31.624;-8.002;2024-03-07T05:04:11;10.35;;;3.60;;
85001;SDS011;75323;31.624;-8.002;2024-03-07T05:06:38;6.88;;;3.70;;
85001;SDS011;75323;31.624;-8.002;2024-03-07T05:09:05;10.95;;;3.17;;
85001;SDS011;75323;31.624;-8.002;2024-03-07T05:11:32;12.60;;;3.10;;
85001;SDS011;75323;31.624;-8.002;2024-03-07T05:14:00;11.20;;;3.13;;
85001;SDS011;75323;31.624;-8.002;2024-03-07T05:16:30;16.98;;;3.83;;
85001;SDS011;75323;31.624;-8.002;2024-03-07T05:18:59;7.57;;;3.92;;
85001;SDS011;75323;31.624;-8.002;2024-03-07T05:21:25;10.98;;;3.20;;
85001;SDS011;75323;31.624;-8.002;2024-03-07T05:24:10;9.95;;;4.50;;
85001;SDS011;75323;31.624;-8.002;2024-03-07T05:26:36;8.20;;;3.22;;
85001;SDS011;75323;31.624;-8.002;2024-03-07T05:29:10;6.57;;;3.50;;
85001;SDS011;75323;31.624;-8.002;2024-03-07T05:31:36;8.85;;;2.90;;
85001;SDS011;75323;31.624;-8.002;2024-03-07T05:34:03;9.30;;;2.97;;
85001;SDS011;75323;31.624;-8.002;2024-03-07T05:36:33;11.90;;;2.92;;
85001;SDS011;75323;31.624;-8.002;2024-03-07T05:39:09;7.72;;;2.72;;
85001;SDS011;75323;31.624;-8.002;2024-03-07T05:41:36;13.05;;;3.42;;
85001;SDS011;75323;31.624;-8.002;2024-03-07T05:44:10;11.10;;;2.72;;
85001;SDS011;75323;31.624;-8.002;2024-03-07T05:46:36;11.82;;;4.18;;
85001;SDS011;75323;31.624;-8.002;2024-03-07T05:49:07;8.73;;;3.13;;
85001;SDS011;75323;31.624;-8.002;2024-03-07T05:51:33;9.35;;;2.78;;
85001;SDS011;75323;31.624;-8.002;2024-03-07T05:54:00;8.18;;;2.78;;
85001;SDS011;75323;31.624;-8.002;2024-03-07T05:56:26;8.82;;;3.47;;
85001;SDS011;75323;31.624;-8.002;2024-03-07T05:58:52;13.38;;;4.25;;
85001;SDS011;75323;31.624;-8.002;2024-03-07T06:01:18;9.98;;;5.15;;
85001;SDS011;75323;31.624;-8.002;2024-03-07T06:03:44;11.02;;;4.03;;
85001;SDS011;75323;31.624;-8.002;2024-03-07T06:06:11;13.55;;;6.40;;
85001;SDS011;75323;31.624;-8.002;2024-03-07T06:08:37;14.95;;;5.68;;
85001;SDS011;75323;31.624;-8.002;2024-03-07T06:11:07;13.88;;;6.13;;
85001;SDS011;75323;31.624;-8.002;2024-03-07T06:13:33;8.27;;;5.47;;
85001;SDS011;75323;31.624;-8.002;2024-03-07T06:15:59;14.50;;;6.75;;
85001;SDS011;75323;31.624;-8.002;2024-03-07T06:18:29;16.63;;;5.22;;
85001;SDS011;75323;31.624;-8.002;2024-03-07T06:20:56;18.65;;;6.45;;
85001;SDS011;75323;31.624;-8.002;2024-03-07T06:23:22;12.60;;;5.95;;
85001;SDS011;75323;31.624;-8.002;2024-03-07T06:25:49;14.88;;;6.47;;
85001;SDS011;75323;31.624;-8.002;2024-03-07T06:28:19;14.93;;;7.32;;
85001;SDS011;75323;31.624;-8.002;2024-03-07T06:30:45;16.73;;;6.97;;
85001;SDS011;75323;31.624;-8.002;2024-03-07T06:33:12;11.93;;;6.35;;
85001;SDS011;75323;31.624;-8.002;2024-03-07T06:35:38;16.00;;;6.93;;
85001;SDS011;75323;31.624;-8.002;2024-03-07T06:38:05;20.02;;;8.80;;
85001;SDS011;75323;31.624;-8.002;2024-03-07T06:40:32;12.88;;;6.47;;
85001;SDS011;75323;31.624;-8.002;2024-03-07T06:43:00;14.45;;;7.63;;
85001;SDS011;75323;31.624;-8.002;2024-03-07T06:45:26;15.82;;;8.13;;
85001;SDS011;75323;31.624;-8.002;2024-03-07T06:47:52;17.65;;;7.25;;
85001;SDS011;75323;31.624;-8.002;2024-03-07T06:50:18;17.98;;;9.02;;
85001;SDS011;75323;31.624;-8.002;2024-03-07T06:52:47;27.15;;;11.50;;
85001;SDS011;75323;31.624;-8.002;2024-03-07T06:55:17;17.02;;;10.40;;
85001;SDS011;75323;31.624;-8.002;2024-03-07T06:57:46;18.48;;;10.25;;
85001;SDS011;75323;31.624;-8.002;2024-03-07T07:00:12;19.27;;;10.02;;
85001;SDS011;75323;31.624;-8.002;2024-03-07T07:02:44;15.68;;;8.25;;
85001;SDS011;75323;31.624;-8.002;2024-03-07T07:05:10;27.02;;;12.45;;
85001;SDS011;75323;31.624;-8.002;2024-03-07T07:07:39;32.25;;;15.10;;
85001;SDS011;75323;31.624;-8.002;2024-03-07T07:10:09;25.30;;;14.07;;
85001;SDS011;75323;31.624;-8.002;2024-03-07T07:12:47;23.75;;;13.35;;
85001;SDS011;75323;31.624;-8.002;2024-03-07T07:15:14;22.48;;;13.82;;
85001;SDS011;75323;31.624;-8.002;2024-03-07T07:17:42;22.48;;;12.38;;
85001;SDS011;75323;31.624;-8.002;2024-03-07T07:20:12;20.15;;;9.73;;
85001;SDS011;75323;31.624;-8.002;2024-03-07T07:22:44;17.88;;;8.55;;
85001;SDS011;75323;31.624;-8.002;2024-03-07T07:25:14;14.77;;;7.40;;
85001;SDS011;75323;31.624;-8.002;2024-03-07T07:27:48;18.60;;;7.18;;
85001;SDS011;75323;31.624;-8.002;2024-03-07T07:30:15;16.55;;;7.70;;
85001;SDS011;75323;31.624;-8.002;2024-03-07T07:32:45;12.23;;;7.63;;
85001;SDS011;75323;31.624;-8.002;2024-03-07T07:35:11;16.67;;;7.72;;
85001;SDS011;75323;31.624;-8.002;2024-03-07T07:37:41;15.00;;;8.25;;
85001;SDS011;75323;31.624;-8.002;2024-03-07T07:40:09;16.98;;;6.35;;
85001;SDS011;75323;31.624;-8.002;2024-03-07T07:42:43;23.73;;;9.65;;
85001;SDS011;75323;31.624;-8.002;2024-03-07T07:45:12;20.52;;;9.38;;
85001;SDS011;75323;31.624;-8.002;2024-03-07T07:47:43;29.00;;;10.90;;
85001;SDS011;75323;31.624;-8.002;2024-03-07T07:50:11;25.52;;;10.15;;
85001;SDS011;75323;31.624;-8.002;2024-03-07T07:52:42;22.27;;;10.15;;
85001;SDS011;75323;31.624;-8.002;2024-03-07T07:55:10;22.70;;;9.55;;
85001;SDS011;75323;31.624;-8.002;2024-03-07T07:57:42;26.95;;;11.70;;
85001;SDS011;75323;31.624;-8.002;2024-03-07T08:00:13;21.08;;;10.07;;
85001;SDS011;75323;31.624;-8.002;2024-03-07T08:05:25;19.80;;;7.93;;
85001;SDS011;75323;31.624;-8.002;2024-03-07T08:08:02;27.67;;;10.27;;
85001;SDS011;75323;31.624;-8.002;2024-03-07T08:10:30;25.80;;;8.25;;
85001;SDS011;75323;31.624;-8.002;2024-03-07T08:12:59;27.05;;;8.68;;
85001;SDS011;75323;31.624;-8.002;2024-03-07T08:15:26;25.15;;;9.18;;
85001;SDS011;75323;31.624;-8.002;2024-03-07T08:17:54;19.45;;;8.45;;
85001;SDS011;75323;31.624;-8.002;2024-03-07T08:20:21;14.98;;;7.57;;
85001;SDS011;75323;31.624;-8.002;2024-03-07T08:22:48;29.08;;;7.65;;
85001;SDS011;75323;31.624;-8.002;2024-03-07T08:25:21;19.00;;;7.53;;
85001;SDS011;75323;31.624;-8.002;2024-03-07T08:27:52;18.15;;;7.05;;
85001;SDS011;75323;31.624;-8.002;2024-03-07T08:30:19;20.30;;;8.02;;
85001;SDS011;75323;31.624;-8.002;2024-03-07T08:32:45;24.02;;;6.05;;
85001;SDS011;75323;31.624;-8.002;2024-03-07T08:35:16;16.77;;;6.05;;
85001;SDS011;75323;31.624;-8.002;2024-03-07T08:37:43;17.60;;;7.00;;
85001;SDS011;75323;31.624;-8.002;2024-03-07T08:40:10;25.40;;;6.80;;
85001;SDS011;75323;31.624;-8.002;2024-03-07T08:42:38;17.42;;;6.95;;
85001;SDS011;75323;31.624;-8.002;2024-03-07T08:45:07;11.30;;;4.97;;
85001;SDS011;75323;31.624;-8.002;2024-03-07T08:47:36;13.15;;;5.97;;
85001;SDS011;75323;31.624;-8.002;2024-03-07T08:50:03;21.30;;;4.85;;
85001;SDS011;75323;31.624;-8.002;2024-03-07T08:52:36;17.92;;;5.75;;
85001;SDS011;75323;31.624;-8.002;2024-03-07T08:55:03;16.80;;;4.57;;
85001;SDS011;75323;31.624;-8.002;2024-03-07T08:57:30;21.52;;;4.40;;
85001;SDS011;75323;31.624;-8.002;2024-03-07T08:59:56;11.85;;;3.78;;
85001;SDS011;75323;31.624;-8.002;2024-03-07T09:02:22;20.40;;;5.20;;
85001;SDS011;75323;31.624;-8.002;2024-03-07T09:04:48;11.30;;;3.80;;
85001;SDS011;75323;31.624;-8.002;2024-03-07T09:07:14;17.50;;;4.10;;
85001;SDS011;75323;31.624;-8.002;2024-03-07T09:09:40;9.23;;;4.07;;
85001;SDS011;75323;31.624;-8.002;2024-03-07T09:12:10;14.48;;;3.67;;
85001;SDS011;75323;31.624;-8.002;2024-03-07T09:14:37;12.75;;;4.35;;
85001;SDS011;75323;31.624;-8.002;2024-03-07T09:17:03;13.35;;;4.15;;
85001;SDS011;75323;31.624;-8.002;2024-03-07T09:19:30;14.25;;;3.72;;
85001;SDS011;75323;31.624;-8.002;2024-03-07T09:21:56;11.65;;;4.45;;
85001;SDS011;75323;31.624;-8.002;2024-03-07T09:24:22;15.02;;;4.03;;
85001;SDS011;75323;31.624;-8.002;2024-03-07T09:26:50;14.82;;;3.75;;
85001;SDS011;75323;31.624;-8.002;2024-03-07T09:29:17;13.45;;;3.28;;
85001;SDS011;75323;31.624;-8.002;2024-03-07T09:31:44;18.30;;;6.07;;
85001;SDS011;75323;31.624;-8.002;2024-03-07T09:34:12;7.85;;;3.22;;
85001;SDS011;75323;31.624;-8.002;2024-03-07T09:36:38;11.95;;;3.72;;
85001;SDS011;75323;31.624;-8.002;2024-03-07T09:39:07;10.63;;;3.15;;
85001;SDS011;75323;31.624;-8.002;2024-03-07T09:41:34;13.40;;;3.13;;
85001;SDS011;75323;31.624;-8.002;2024-03-07T09:44:01;12.02;;;4.15;;
85001;SDS011;75323;31.624;-8.002;2024-03-07T09:46:28;13.32;;;3.78;;
85001;SDS011;75323;31.624;-8.002;2024-03-07T09:48:54;18.65;;;5.22;;
85001;SDS011;75323;31.624;-8.002;2024-03-07T09:51:20;12.95;;;3.92;;
85001;SDS011;75323;31.624;-8.002;2024-03-07T09:53:47;9.65;;;4.53;;
85001;SDS011;75323;31.624;-8.002;2024-03-07T09:56:14;6.70;;;2.25;;
85001;SDS011;75323;31.624;-8.002;2024-03-07T09:58:42;10.98;;;3.60;;
85001;SDS011;75323;31.624;-8.002;2024-03-07T10:01:10;10.73;;;2.88;;
85001;SDS011;75323;31.624;-8.002;2024-03-07T10:03:37;7.22;;;2.38;;
85001;SDS011;75323;31.624;-8.002;2024-03-07T10:06:03;7.85;;;1.40;;
85001;SDS011;75323;31.624;-8.002;2024-03-07T10:08:30;5.28;;;1.70;;
85001;SDS011;75323;31.624;-8.002;2024-03-07T10:10:56;10.13;;;2.25;;
85001;SDS011;75323;31.624;-8.002;2024-03-07T10:13:22;10.60;;;3.75;;
85001;SDS011;75323;31.624;-8.002;2024-03-07T10:15:48;9.15;;;2.78;;
85001;SDS011;75323;31.624;-8.002;2024-03-07T10:18:14;6.95;;;2.78;;
85001;SDS011;75323;31.624;-8.002;2024-03-07T10:20:42;9.45;;;2.72;;
85001;SDS011;75323;31.624;-8.002;2024-03-07T10:23:08;6.93;;;2.08;;
85001;SDS011;75323;31.624;-8.002;2024-03-07T10:25:35;11.80;;;3.08;;
85001;SDS011;75323;31.624;-8.002;2024-03-07T10:28:02;10.25;;;2.78;;
85001;SDS011;75323;31.624;-8.002;2024-03-07T10:30:29;8.93;;;2.72;;
85001;SDS011;75323;31.624;-8.002;2024-03-07T10:32:55;8.82;;;1.92;;
85001;SDS011;75323;31.624;-8.002;2024-03-07T10:35:23;6.22;;;2.83;;
85001;SDS011;75323;31.624;-8.002;2024-03-07T10:37:53;7.13;;;2.00;;
85001;SDS011;75323;31.624;-8.002;2024-03-07T10:40:20;9.23;;;2.60;;
85001;SDS011;75323;31.624;-8.002;2024-03-07T10:42:51;8.05;;;2.67;;
85001;SDS011;75323;31.624;-8.002;2024-03-07T10:45:21;9.93;;;2.75;;
85001;SDS011;75323;31.624;-8.002;2024-03-07T10:47:55;6.32;;;2.03;;
85001;SDS011;75323;31.624;-8.002;2024-03-07T10:55:46;8.10;;;2.50;;
85001;SDS011;75323;31.624;-8.002;2024-03-07T11:01:18;5.65;;;2.13;;
85001;SDS011;75323;31.624;-8.002;2024-03-07T11:03:46;7.43;;;1.92;;
85001;SDS011;75323;31.624;-8.002;2024-03-07T11:06:12;8.02;;;3.63;;
85001;SDS011;75323;31.624;-8.002;2024-03-07T11:08:39;10.27;;;2.90;;
85001;SDS011;75323;31.624;-8.002;2024-03-07T11:11:05;8.20;;;1.90;;
85001;SDS011;75323;31.624;-8.002;2024-03-07T11:13:31;7.60;;;1.90;;
85001;SDS011;75323;31.624;-8.002;2024-03-07T11:15:59;7.55;;;2.10;;
85001;SDS011;75323;31.624;-8.002;2024-03-07T11:18:25;8.52;;;2.10;;
85001;SDS011;75323;31.624;-8.002;2024-03-07T11:20:54;7.60;;;2.25;;
85001;SDS011;75323;31.624;-8.002;2024-03-07T11:23:26;10.90;;;2.38;;
85001;SDS011;75323;31.624;-8.002;2024-03-07T11:26:01;8.73;;;2.50;;
85001;SDS011;75323;31.624;-8.002;2024-03-07T11:28:30;6.85;;;1.70;;
85001;SDS011;75323;31.624;-8.002;2024-03-07T11:31:06;4.53;;;1.25;;
85001;SDS011;75323;31.624;-8.002;2024-03-07T11:33:37;8.93;;;1.25;;
85001;SDS011;75323;31.624;-8.002;2024-03-07T11:36:07;7.10;;;1.90;;
85001;SDS011;75323;31.624;-8.002;2024-03-07T11:38:35;4.57;;;1.45;;
85001;SDS011;75323;31.624;-8.002;2024-03-07T11:41:00;6.60;;;1.45;;
85001;SDS011;75323;31.624;-8.002;2024-03-07T11:43:31;6.97;;;2.30;;
85001;SDS011;75323;31.624;-8.002;2024-03-07T11:45:58;5.15;;;1.52;;
85001;SDS011;75323;31.624;-8.002;2024-03-07T11:48:25;5.40;;;1.52;;
85001;SDS011;75323;31.624;-8.002;2024-03-07T11:50:50;2.67;;;1.67;;
85001;SDS011;75323;31.624;-8.002;2024-03-07T11:53:16;5.65;;;1.35;;
85001;SDS011;75323;31.624;-8.002;2024-03-07T11:55:42;4.57;;;1.98;;
85001;SDS011;75323;31.624;-8.002;2024-03-07T11:58:13;6.60;;;1.65;;
85001;SDS011;75323;31.624;-8.002;2024-03-07T12:00:45;6.32;;;1.83;;
85001;SDS011;75323;31.624;-8.002;2024-03-07T12:03:12;7.00;;;1.65;;
85001;SDS011;75323;31.624;-8.002;2024-03-07T12:08:14;3.80;;;1.70;;
85001;SDS011;75323;31.624;-8.002;2024-03-07T12:10:41;4.10;;;0.77;;
85001;SDS011;75323;31.624;-8.002;2024-03-07T12:13:13;4.45;;;0.88;;
85001;SDS011;75323;31.624;-8.002;2024-03-07T12:15:44;3.33;;;0.80;;
85001;SDS011;75323;31.624;-8.002;2024-03-07T12:18:10;2.65;;;0.93;;
85001;SDS011;75323;31.624;-8.002;2024-03-07T12:20:40;4.25;;;1.02;;
85001;SDS011;75323;31.624;-8.002;2024-03-07T12:23:07;5.13;;;1.58;;
85001;SDS011;75323;31.624;-8.002;2024-03-07T12:25:34;2.70;;;0.65;;
85001;SDS011;75323;31.624;-8.002;2024-03-07T12:28:09;11.25;;;1.95;;
85001;SDS011;75323;31.624;-8.002;2024-03-07T12:30:57;5.68;;;0.95;;
85001;SDS011;75323;31.624;-8.002;2024-03-07T12:33:24;11.02;;;1.08;;
85001;SDS011;75323;31.624;-8.002;2024-03-07T12:35:53;4.45;;;2.10;;
85001;SDS011;75323;31.624;-8.002;2024-03-07T12:38:31;7.20;;;1.70;;
85001;SDS011;75323;31.624;-8.002;2024-03-07T12:41:09;2.75;;;0.93;;
85001;SDS011;75323;31.624;-8.002;2024-03-07T12:43:42;3.45;;;0.95;;
85001;SDS011;75323;31.624;-8.002;2024-03-07T12:46:12;5.95;;;1.05;;
85001;SDS011;75323;31.624;-8.002;2024-03-07T12:48:40;4.68;;;1.30;;
85001;SDS011;75323;31.624;-8.002;2024-03-07T12:51:06;2.25;;;1.30;;
85001;SDS011;75323;31.624;-8.002;2024-03-07T12:53:31;2.78;;;1.45;;
85001;SDS011;75323;31.624;-8.002;2024-03-07T12:56:00;5.57;;;1.30;;
85001;SDS011;75323;31.624;-8.002;2024-03-07T12:58:26;14.65;;;1.13;;
85001;SDS011;75323;31.624;-8.002;2024-03-07T13:00:54;4.47;;;0.85;;
85001;SDS011;75323;31.624;-8.002;2024-03-07T13:03:24;2.67;;;0.90;;
85001;SDS011;75323;31.624;-8.002;2024-03-07T13:05:56;4.28;;;1.30;;
85001;SDS011;75323;31.624;-8.002;2024-03-07T13:08:26;7.65;;;0.88;;
85001;SDS011;75323;31.624;-8.002;2024-03-07T13:10:54;6.80;;;1.55;;
85001;SDS011;75323;31.624;-8.002;2024-03-07T13:13:20;7.57;;;0.68;;
85001;SDS011;75323;31.624;-8.002;2024-03-07T13:15:46;19.65;;;1.15;;
85001;SDS011;75323;31.624;-8.002;2024-03-07T13:18:12;6.03;;;0.88;;
85001;SDS011;75323;31.624;-8.002;2024-03-07T13:20:38;6.07;;;0.82;;
85001;SDS011;75323;31.624;-8.002;2024-03-07T13:23:04;3.05;;;0.75;;
85001;SDS011;75323;31.624;-8.002;2024-03-07T13:25:31;6.00;;;1.05;;
85001;SDS011;75323;31.624;-8.002;2024-03-07T13:28:02;3.72;;;1.17;;
85001;SDS011;75323;31.624;-8.002;2024-03-07T13:30:32;3.30;;;0.95;;
85001;SDS011;75323;31.624;-8.002;2024-03-07T13:33:01;10.98;;;1.75;;
85001;SDS011;75323;31.624;-8.002;2024-03-07T13:35:28;5.03;;;1.38;;
85001;SDS011;75323;31.624;-8.002;2024-03-07T13:37:54;5.70;;;1.33;;
85001;SDS011;75323;31.624;-8.002;2024-03-07T13:40:21;7.90;;;1.23;;
85001;SDS011;75323;31.624;-8.002;2024-03-07T13:42:49;3.03;;;1.60;;
85001;SDS011;75323;31.624;-8.002;2024-03-07T13:45:28;4.97;;;1.10;;
85001;SDS011;75323;31.624;-8.002;2024-03-07T13:48:01;5.55;;;1.00;;
85001;SDS011;75323;31.624;-8.002;2024-03-07T13:50:30;4.70;;;1.15;;
85001;SDS011;75323;31.624;-8.002;2024-03-07T13:52:56;3.92;;;1.05;;
85001;SDS011;75323;31.624;-8.002;2024-03-07T14:09:56;11.63;;;0.80;;
85001;SDS011;75323;31.624;-8.002;2024-03-07T14:29:55;6.63;;;1.58;;
85001;SDS011;75323;31.624;-8.002;2024-03-07T14:32:35;10.68;;;1.25;;
85001;SDS011;75323;31.624;-8.002;2024-03-07T14:38:06;8.73;;;0.82;;
85001;SDS011;75323;31.624;-8.002;2024-03-07T14:40:48;5.93;;;1.67;;
85001;SDS011;75323;31.624;-8.002;2024-03-07T14:43:15;14.68;;;1.30;;
85001;SDS011;75323;31.624;-8.002;2024-03-07T14:45:42;14.82;;;2.15;;
85001;SDS011;75323;31.624;-8.002;2024-03-07T14:48:08;39.03;;;3.72;;
85001;SDS011;75323;31.624;-8.002;2024-03-07T14:50:35;48.05;;;2.95;;
85001;SDS011;75323;31.624;-8.002;2024-03-07T14:53:01;26.48;;;2.25;;
85001;SDS011;75323;31.624;-8.002;2024-03-07T14:55:28;22.83;;;1.42;;
85001;SDS011;75323;31.624;-8.002;2024-03-07T14:57:54;27.75;;;1.58;;
85001;SDS011;75323;31.624;-8.002;2024-03-07T15:00:20;23.92;;;2.33;;
85001;SDS011;75323;31.624;-8.002;2024-03-07T15:02:52;12.13;;;1.73;;
85001;SDS011;75323;31.624;-8.002;2024-03-07T15:05:22;17.35;;;1.23;;
85001;SDS011;75323;31.624;-8.002;2024-03-07T15:07:49;16.88;;;1.30;;
85001;SDS011;75323;31.624;-8.002;2024-03-07T15:10:21;13.98;;;1.15;;
85001;SDS011;75323;31.624;-8.002;2024-03-07T15:12:53;11.55;;;2.05;;
85001;SDS011;75323;31.624;-8.002;2024-03-07T15:15:19;10.52;;;1.77;;
85001;SDS011;75323;31.624;-8.002;2024-03-07T15:17:50;16.80;;;1.77;;
85001;SDS011;75323;31.624;-8.002;2024-03-07T15:20:16;15.40;;;1.30;;